Time;durP1;ratioP1;P1;durP2;ratioP2;P2;SDS_P1;SDS_P2;PMS_P1;PMS_P2;Temp;Humidity;BMP_temperature;BMP_pressure;BME280_temperature;BME280_humidity;BME280_pressure;Samples;Min_cycle;Max_cycle;Signal;HPM_P1;HPM_P2
2021/11/22 00:00:31;;;;;;;4.20;1.50;;;7.20;99.90;;;;;;5035080;28;20137;-75
2021/11/22 00:02:58;;;;;;;2.13;1.08;;;7.20;99.90;;;;;;5035549;28;20108;-76
2021/11/22 00:05:24;;;;;;;3.58;1.42;;;7.20;99.90;;;;;;5035154;28;20036;-77
2021/11/22 00:07:49;;;;;;;2.85;1.00;;;7.20;99.90;;;;;;5035076;28;20025;-76
2021/11/22 00:10:16;;;;;;;3.67;1.13;;;7.20;99.90;;;;;;5035116;28;20029;-76
2021/11/22 00:12:42;;;;;;;3.42;1.00;;;7.20;99.90;;;;;;5035011;28;20025;-76
2021/11/22 00:15:10;;;;;;;1.83;0.75;;;7.20;99.90;;;;;;5034052;28;20024;-77
2021/11/22 00:17:37;;;;;;;3.00;0.80;;;7.20;99.90;;;;;;5034948;28;20479;-74
2021/11/22 00:20:06;;;;;;;2.33;0.82;;;7.20;99.90;;;;;;5034868;28;20116;-75
2021/11/22 00:22:32;;;;;;;2.05;0.75;;;7.20;99.90;;;;;;5034878;28;20418;-76
2021/11/22 00:24:57;;;;;;;2.75;0.70;;;7.20;99.90;;;;;;5035103;28;20103;-74
2021/11/22 00:27:23;;;;;;;0.60;0.60;;;7.20;99.90;;;;;;5034957;28;20486;-76
2021/11/22 00:29:49;;;;;;;2.40;0.90;;;7.10;99.90;;;;;;5034971;28;20519;-79
2021/11/22 00:32:14;;;;;;;5.05;0.90;;;7.10;99.90;;;;;;5034623;28;20372;-73
2021/11/22 00:34:44;;;;;;;2.20;0.90;;;7.20;99.90;;;;;;5034605;28;20023;-77
2021/11/22 00:37:14;;;;;;;2.65;0.98;;;7.20;99.90;;;;;;5034888;28;20021;-77
2021/11/22 00:39:41;;;;;;;0.65;0.57;;;7.20;99.90;;;;;;5034607;28;20087;-76
2021/11/22 00:42:08;;;;;;;4.55;1.10;;;7.20;99.90;;;;;;5033168;28;20080;-75
2021/11/22 00:44:35;;;;;;;4.25;1.20;;;7.10;99.90;;;;;;5034468;28;20029;-77
2021/11/22 00:47:01;;;;;;;3.20;0.80;;;7.10;99.90;;;;;;5034318;28;20430;-73
2021/11/22 00:49:27;;;;;;;2.20;0.90;;;7.10;99.90;;;;;;5034302;28;20021;-76
2021/11/22 00:51:52;;;;;;;2.25;0.75;;;7.20;99.90;;;;;;5034552;28;20071;-76
2021/11/22 00:54:18;;;;;;;1.48;0.60;;;7.20;99.90;;;;;;5034226;28;20025;-76
2021/11/22 00:56:44;;;;;;;2.08;0.65;;;7.10;99.90;;;;;;5034142;28;20028;-76
2021/11/22 00:59:10;;;;;;;3.83;0.98;;;7.20;99.90;;;;;;5032781;28;20025;-74
2021/11/22 01:01:36;;;;;;;6.32;1.05;;;7.10;99.90;;;;;;5033740;28;20042;-75
2021/11/22 01:04:03;;;;;;;2.80;0.88;;;7.10;99.90;;;;;;5032744;28;20438;-77
2021/11/22 01:06:29;;;;;;;1.95;0.68;;;7.10;99.90;;;;;;5034030;28;20014;-75
2021/11/22 01:08:55;;;;;;;1.80;0.73;;;7.10;99.90;;;;;;5034185;28;20037;-75
2021/11/22 01:11:21;;;;;;;4.65;0.80;;;7.10;99.90;;;;;;5033886;28;20502;-77
2021/11/22 01:13:47;;;;;;;2.90;0.90;;;7.10;99.90;;;;;;5033896;28;20044;-74
2021/11/22 01:16:13;;;;;;;6.57;0.93;;;7.10;99.90;;;;;;5033791;28;20024;-75
2021/11/22 01:18:39;;;;;;;2.25;0.90;;;7.10;99.90;;;;;;5033805;28;20035;-74
2021/11/22 01:21:05;;;;;;;2.30;0.85;;;7.10;99.90;;;;;;5034264;28;20025;-80
2021/11/22 01:23:32;;;;;;;4.15;0.82;;;7.10;99.90;;;;;;5034003;28;20112;-76
2021/11/22 01:25:59;;;;;;;1.95;0.65;;;7.10;99.90;;;;;;5033298;28;20018;-75
2021/11/22 01:28:26;;;;;;;5.25;0.90;;;7.10;99.90;;;;;;5033556;28;20052;-77
2021/11/22 01:30:51;;;;;;;0.40;0.35;;;7.10;99.90;;;;;;5033580;28;20104;-74
2021/11/22 01:33:19;;;;;;;2.13;0.70;;;7.10;99.90;;;;;;5033552;28;20101;-77
2021/11/22 01:35:45;;;;;;;7.00;0.82;;;7.10;99.90;;;;;;5033539;28;20021;-74
2021/11/22 01:38:14;;;;;;;3.75;0.60;;;7.10;99.90;;;;;;5033478;28;20080;-76
2021/11/22 01:40:41;;;;;;;2.20;0.85;;;7.10;99.90;;;;;;5034002;28;20021;-74
2021/11/22 01:43:07;;;;;;;4.82;1.02;;;7.10;99.90;;;;;;5033682;28;20029;-77
2021/11/22 01:45:34;;;;;;;5.68;0.82;;;7.10;99.90;;;;;;5033999;28;20024;-78
2021/11/22 01:48:00;;;;;;;2.72;1.02;;;7.10;99.90;;;;;;5033286;28;20064;-77
2021/11/22 01:50:27;;;;;;;2.10;0.80;;;7.00;99.90;;;;;;5033343;28;20026;-75
2021/11/22 01:52:55;;;;;;;2.17;0.70;;;7.10;99.90;;;;;;5033284;28;20518;-74
2021/11/22 01:55:23;;;;;;;4.10;0.70;;;7.10;99.90;;;;;;5033270;28;20018;-76
2021/11/22 01:57:51;;;;;;;2.95;1.00;;;7.10;99.90;;;;;;5033190;28;20029;-78
2021/11/22 02:00:24;;;;;;;3.00;0.80;;;7.10;99.90;;;;;;5033001;28;20525;-76
2021/11/22 02:02:50;;;;;;;2.28;0.80;;;7.10;99.90;;;;;;5033753;28;20414;-74
2021/11/22 02:05:16;;;;;;;1.77;0.70;;;7.10;99.90;;;;;;5033173;28;20036;-74
2021/11/22 02:07:42;;;;;;;3.03;0.80;;;7.10;99.90;;;;;;5033114;28;20025;-75
2021/11/22 02:10:09;;;;;;;3.60;0.73;;;7.00;99.90;;;;;;5033116;28;20021;-76
2021/11/22 02:12:36;;;;;;;3.35;1.00;;;7.10;99.90;;;;;;5033410;28;20025;-76
2021/11/22 02:15:04;;;;;;;1.45;0.60;;;7.10;99.90;;;;;;5033082;28;20022;-77
2021/11/22 02:17:29;;;;;;;1.50;0.50;;;7.10;99.90;;;;;;5033078;28;20507;-77
2021/11/22 02:20:02;;;;;;;3.17;0.80;;;7.10;99.90;;;;;;5031785;28;20028;-77
2021/11/22 02:22:29;;;;;;;1.95;0.60;;;7.10;99.90;;;;;;5033051;28;20032;-76
2021/11/22 02:24:55;;;;;;;1.38;0.50;;;7.10;99.90;;;;;;5033029;28;20017;-77
2021/11/22 02:27:21;;;;;;;2.75;0.60;;;7.10;99.90;;;;;;5033170;28;20096;-74
2021/11/22 02:29:47;;;;;;;1.10;0.60;;;7.10;99.90;;;;;;5032972;28;20489;-77
2021/11/22 02:32:14;;;;;;;1.70;0.90;;;7.10;99.90;;;;;;5032908;28;20028;-75
2021/11/22 02:34:40;;;;;;;0.88;0.32;;;7.10;99.90;;;;;;5033210;28;20028;-76
2021/11/22 02:37:06;;;;;;;3.33;0.90;;;7.00;99.90;;;;;;5032872;28;20467;-78
2021/11/22 02:39:32;;;;;;;2.58;0.70;;;7.00;99.90;;;;;;5035515;28;20487;-76
2021/11/22 02:41:58;;;;;;;1.40;0.50;;;7.10;99.90;;;;;;5036730;28;20040;-77
2021/11/22 02:44:23;;;;;;;3.30;0.55;;;7.10;99.90;;;;;;5036977;28;20044;-75
2021/11/22 02:46:49;;;;;;;1.63;0.43;;;7.00;99.90;;;;;;5036569;28;20053;-77
2021/11/22 02:49:14;;;;;;;3.17;0.70;;;7.10;99.90;;;;;;5036582;28;20071;-74
2021/11/22 02:51:40;;;;;;;1.55;0.70;;;7.00;99.90;;;;;;5036561;28;20026;-75
2021/11/22 02:54:06;;;;;;;2.78;0.73;;;7.10;99.90;;;;;;5036472;28;20024;-76
2021/11/22 02:56:33;;;;;;;4.88;0.80;;;7.10;99.90;;;;;;5036479;28;20080;-74
2021/11/22 02:59:00;;;;;;;3.00;0.80;;;7.10;99.90;;;;;;5036293;28;20487;-74
2021/11/22 03:01:26;;;;;;;1.38;0.50;;;7.10;99.90;;;;;;5035732;28;20057;-76
2021/11/22 03:03:54;;;;;;;4.05;0.95;;;7.00;99.90;;;;;;5036296;28;20032;-73
2021/11/22 03:06:21;;;;;;;5.93;0.68;;;7.00;99.90;;;;;;5036268;28;20029;-77
2021/11/22 03:08:47;;;;;;;2.95;0.43;;;7.00;99.90;;;;;;5036187;28;20021;-74
2021/11/22 03:11:15;;;;;;;1.73;0.73;;;7.00;99.90;;;;;;5036740;28;20029;-75
2021/11/22 03:13:43;;;;;;;4.43;0.77;;;7.00;99.90;;;;;;5036179;28;20021;-78
2021/11/22 03:16:11;;;;;;;3.15;0.75;;;7.00;99.90;;;;;;5036369;28;20026;-74
2021/11/22 03:18:37;;;;;;;4.93;0.82;;;7.00;99.90;;;;;;5036359;28;20025;-76
2021/11/22 03:21:04;;;;;;;4.97;0.80;;;7.00;99.90;;;;;;5036280;28;20506;-76
2021/11/22 03:23:31;;;;;;;2.97;0.60;;;7.00;99.90;;;;;;5035949;28;20546;-74
2021/11/22 03:25:57;;;;;;;3.50;0.65;;;7.00;99.90;;;;;;5035904;28;20048;-76
2021/11/22 03:28:24;;;;;;;4.38;0.65;;;7.00;99.90;;;;;;5036371;28;20501;-76
2021/11/22 03:30:51;;;;;;;2.33;0.52;;;7.00;99.90;;;;;;5035811;28;20029;-77
2021/11/22 03:33:18;;;;;;;3.03;0.70;;;7.00;99.90;;;;;;5035799;28;20029;-77
2021/11/22 03:35:45;;;;;;;5.30;0.93;;;6.90;99.90;;;;;;5035735;28;20049;-75
2021/11/22 03:38:12;;;;;;;3.38;0.75;;;7.00;99.90;;;;;;5034718;28;20053;-76
2021/11/22 03:40:39;;;;;;;1.15;0.55;;;6.90;99.90;;;;;;5034386;28;20486;-77
2021/11/22 03:45:36;;;;;;;3.20;0.80;;;6.90;99.90;;;;;;5035889;28;20044;-75
2021/11/22 03:48:03;;;;;;;3.00;0.70;;;6.90;99.90;;;;;;5036058;28;20029;-74
2021/11/22 03:50:29;;;;;;;3.70;1.55;;;6.90;99.90;;;;;;5035189;28;20025;-78
2021/11/22 03:52:55;;;;;;;4.35;0.85;;;6.90;99.90;;;;;;5035462;28;20021;-74
2021/11/22 03:55:21;;;;;;;3.00;1.02;;;6.90;99.90;;;;;;5036006;28;20100;-75
2021/11/22 03:57:46;;;;;;;2.38;0.73;;;6.90;99.90;;;;;;5035301;28;20024;-77
2021/11/22 04:00:13;;;;;;;4.65;1.15;;;6.90;99.90;;;;;;5035070;28;20057;-76
2021/11/22 04:02:39;;;;;;;5.72;1.20;;;7.00;99.90;;;;;;5035838;28;20482;-75
2021/11/22 04:05:06;;;;;;;3.63;0.95;;;6.90;99.90;;;;;;5035193;28;20487;-77
2021/11/22 04:07:31;;;;;;;10.88;3.35;;;6.90;99.90;;;;;;5033809;28;20442;-75
2021/11/22 04:09:57;;;;;;;5.60;1.15;;;6.90;99.90;;;;;;5035353;28;20033;-75
2021/11/22 04:12:23;;;;;;;3.80;1.13;;;6.90;99.90;;;;;;5035055;28;20025;-76
2021/11/22 04:14:49;;;;;;;6.80;1.45;;;6.90;99.90;;;;;;5035297;28;20068;-75
2021/11/22 04:17:15;;;;;;;6.53;1.00;;;6.90;99.90;;;;;;5033698;28;20111;-77
2021/11/22 04:19:41;;;;;;;5.57;1.23;;;6.90;99.90;;;;;;5034949;28;20033;-76
2021/11/22 04:22:07;;;;;;;5.43;1.30;;;6.90;99.90;;;;;;5034854;28;20068;-75
2021/11/22 04:24:33;;;;;;;7.30;1.23;;;6.90;99.90;;;;;;5033529;28;20464;-75
2021/11/22 04:26:59;;;;;;;2.47;0.88;;;6.90;99.90;;;;;;5034704;28;20071;-78
2021/11/22 04:29:25;;;;;;;3.90;1.23;;;6.90;99.90;;;;;;5034764;28;20414;-73
2021/11/22 04:31:50;;;;;;;1.20;0.70;;;6.90;99.90;;;;;;5034671;28;20369;-77
2021/11/22 04:34:16;;;;;;;3.65;1.17;;;6.90;99.90;;;;;;5034901;28;20025;-75
2021/11/22 04:36:42;;;;;;;3.85;1.10;;;6.90;99.90;;;;;;5034515;28;20475;-75
2021/11/22 04:39:08;;;;;;;4.15;1.17;;;6.90;99.90;;;;;;5033250;28;20049;-76
2021/11/22 04:41:34;;;;;;;4.15;1.17;;;6.90;99.90;;;;;;5034502;28;20483;-77
2021/11/22 04:44:02;;;;;;;10.25;2.25;;;6.80;99.90;;;;;;5034452;28;20078;-74
2021/11/22 04:46:28;;;;;;;3.72;1.10;;;6.80;99.90;;;;;;5034395;28;20433;-77
2021/11/22 04:48:53;;;;;;;4.65;1.15;;;6.90;99.90;;;;;;5034276;28;20112;-78
2021/11/22 04:51:19;;;;;;;3.53;0.70;;;6.90;99.90;;;;;;5034303;28;20014;-75
2021/11/22 04:53:45;;;;;;;5.38;1.48;;;6.90;99.90;;;;;;5032996;28;20037;-76
2021/11/22 04:56:11;;;;;;;6.47;1.10;;;6.90;99.90;;;;;;5032952;28;20407;-73
2021/11/22 04:58:37;;;;;;;5.40;0.90;;;6.90;99.90;;;;;;5034299;28;20025;-73
2021/11/22 05:01:03;;;;;;;3.30;0.93;;;6.80;99.90;;;;;;5033235;28;20084;-75
2021/11/22 05:03:28;;;;;;;4.53;1.08;;;6.80;99.90;;;;;;5034417;28;20031;-74
2021/11/22 05:05:54;;;;;;;5.40;1.30;;;6.80;99.90;;;;;;5032831;28;20022;-76
2021/11/22 05:08:20;;;;;;;7.45;1.20;;;6.80;99.90;;;;;;5033941;28;20119;-78
2021/11/22 05:10:45;;;;;;;3.75;0.77;;;6.80;99.90;;;;;;5033949;28;20049;-75
2021/11/22 05:13:14;;;;;;;6.97;1.40;;;6.80;99.90;;;;;;5033947;28;20025;-75
2021/11/22 05:15:41;;;;;;;6.57;1.13;;;6.80;99.90;;;;;;5034152;28;20026;-77
2021/11/22 05:18:09;;;;;;;3.75;1.20;;;6.80;99.90;;;;;;5033820;28;20025;-76
2021/11/22 05:20:36;;;;;;;5.03;1.10;;;6.80;99.90;;;;;;5034329;28;20049;-77
2021/11/22 05:23:03;;;;;;;6.15;1.40;;;6.80;99.90;;;;;;5034000;28;20034;-73
2021/11/22 05:25:29;;;;;;;3.20;1.23;;;6.80;99.90;;;;;;5033973;28;20029;-77
2021/11/22 05:27:56;;;;;;;8.20;1.45;;;6.80;99.90;;;;;;5033609;28;20029;-76
2021/11/22 05:30:25;;;;;;;3.38;0.70;;;6.80;99.90;;;;;;5033898;28;20024;-77
2021/11/22 05:32:51;;;;;;;3.00;0.85;;;6.80;99.90;;;;;;5032364;28;20112;-75
2021/11/22 05:35:17;;;;;;;4.72;1.10;;;6.80;99.90;;;;;;5033609;28;20017;-74
2021/11/22 05:37:43;;;;;;;7.93;1.35;;;6.80;99.90;;;;;;5033536;28;20036;-75
2021/11/22 05:40:09;;;;;;;3.45;1.08;;;6.80;99.90;;;;;;5033510;28;20040;-76
2021/11/22 05:42:35;;;;;;;2.67;0.90;;;6.80;99.90;;;;;;5032136;28;20430;-77
2021/11/22 05:45:00;;;;;;;1.73;1.10;;;6.80;99.90;;;;;;5033441;28;20013;-77
2021/11/22 05:47:26;;;;;;;7.55;1.42;;;6.80;99.90;;;;;;5033585;28;20064;-76
2021/11/22 05:49:55;;;;;;;3.10;1.10;;;6.80;99.90;;;;;;5033366;28;20395;-74
2021/11/22 05:52:23;;;;;;;4.97;1.30;;;6.80;99.90;;;;;;5033335;28;20022;-75
2021/11/22 05:54:52;;;;;;;5.60;1.42;;;6.80;99.90;;;;;;5032334;28;20440;-77
2021/11/22 05:57:18;;;;;;;4.30;1.17;;;6.80;99.90;;;;;;5033183;28;20045;-78
2021/11/22 05:59:45;;;;;;;6.38;1.77;;;6.90;99.90;;;;;;5033013;28;20033;-75
2021/11/22 06:02:11;;;;;;;6.57;1.17;;;6.80;99.90;;;;;;5033546;28;20048;-74
2021/11/22 06:04:36;;;;;;;4.32;1.30;;;6.80;99.90;;;;;;5033210;28;20022;-76
2021/11/22 06:07:02;;;;;;;3.80;1.20;;;6.80;99.90;;;;;;5033076;28;20034;-75
2021/11/22 06:09:28;;;;;;;2.95;1.00;;;6.80;99.90;;;;;;5033175;28;20025;-76
2021/11/22 06:11:53;;;;;;;1.65;0.80;;;6.80;99.90;;;;;;5031835;28;20071;-76
2021/11/22 06:14:19;;;;;;;4.07;1.05;;;6.90;99.90;;;;;;5037493;28;20056;-74
2021/11/22 06:16:45;;;;;;;3.78;1.20;;;6.90;99.90;;;;;;5037508;28;20032;-76
2021/11/22 06:19:10;;;;;;;3.85;1.00;;;6.90;99.90;;;;;;5037427;28;20036;-76
2021/11/22 06:21:36;;;;;;;2.97;1.58;;;6.90;99.90;;;;;;5037428;28;20029;-76
2021/11/22 06:24:04;;;;;;;4.85;1.25;;;6.80;99.90;;;;;;5037327;28;20029;-77
2021/11/22 06:26:31;;;;;;;3.75;0.82;;;6.80;99.90;;;;;;5037277;28;20025;-78
2021/11/22 06:28:57;;;;;;;4.20;1.20;;;6.80;99.90;;;;;;5037245;28;20068;-74
2021/11/22 06:31:23;;;;;;;4.10;1.00;;;6.80;99.90;;;;;;5037208;28;20021;-73
2021/11/22 06:33:50;;;;;;;2.53;1.30;;;6.80;99.90;;;;;;5037178;28;20022;-76
2021/11/22 06:36:15;;;;;;;4.95;1.20;;;6.80;99.90;;;;;;5037159;28;20026;-74
2021/11/22 06:38:41;;;;;;;7.18;1.40;;;6.80;99.90;;;;;;5036786;28;20032;-78
2021/11/22 06:41:06;;;;;;;5.68;2.35;;;6.80;99.90;;;;;;5036995;28;20033;-74
2021/11/22 06:43:32;;;;;;;4.93;1.63;;;6.90;99.90;;;;;;5037243;28;20065;-74
2021/11/22 06:45:58;;;;;;;4.43;1.30;;;6.90;99.90;;;;;;5036926;28;20025;-75
2021/11/22 06:48:23;;;;;;;8.07;1.52;;;6.80;99.90;;;;;;5037043;28;20021;-74
2021/11/22 06:50:49;;;;;;;4.75;1.38;;;6.80;99.90;;;;;;5036968;28;20028;-77
2021/11/22 06:53:15;;;;;;;4.78;1.15;;;6.80;99.90;;;;;;5036548;28;20020;-77
2021/11/22 06:55:40;;;;;;;10.35;1.92;;;6.80;99.90;;;;;;5036805;28;20057;-76
2021/11/22 06:58:06;;;;;;;5.45;1.48;;;6.80;99.90;;;;;;5036659;28;20025;-77
2021/11/22 07:00:32;;;;;;;5.90;1.42;;;6.80;99.90;;;;;;5036225;28;20566;-76
2021/11/22 07:02:57;;;;;;;4.97;1.48;;;6.80;99.90;;;;;;5036390;28;20025;-73
2021/11/22 07:05:25;;;;;;;4.85;1.30;;;6.80;99.90;;;;;;5036648;28;20025;-75
2021/11/22 07:07:51;;;;;;;6.22;1.27;;;6.80;99.90;;;;;;5036495;28;20025;-73
2021/11/22 07:10:21;;;;;;;5.20;1.48;;;6.90;99.90;;;;;;5036234;28;20108;-73
2021/11/22 07:12:47;;;;;;;5.28;1.30;;;6.80;99.90;;;;;;5034867;28;20021;-74
2021/11/22 07:15:18;;;;;;;2.72;0.90;;;6.80;99.90;;;;;;5036140;28;20395;-75
2021/11/22 07:17:44;;;;;;;5.50;1.10;;;6.80;99.90;;;;;;5036115;28;20483;-76
2021/11/22 07:20:10;;;;;;;8.40;1.20;;;6.80;99.90;;;;;;5036325;28;20044;-77
2021/11/22 07:22:36;;;;;;;2.90;1.02;;;6.80;99.90;;;;;;5036581;28;20022;-76
2021/11/22 07:25:01;;;;;;;8.82;1.20;;;6.80;99.90;;;;;;5035253;28;20032;-73
2021/11/22 07:27:27;;;;;;;6.30;1.55;;;6.80;99.90;;;;;;5035872;28;20092;-76
2021/11/22 07:29:56;;;;;;;6.03;1.33;;;6.80;99.90;;;;;;5036140;28;20108;-75
2021/11/22 07:32:26;;;;;;;4.03;1.20;;;6.80;99.90;;;;;;5035833;28;20057;-75
2021/11/22 07:34:52;;;;;;;2.43;1.10;;;6.90;99.90;;;;;;5035811;28;20029;-76
2021/11/22 07:37:17;;;;;;;4.78;1.55;;;6.80;99.90;;;;;;5035765;28;20029;-76
2021/11/22 07:39:43;;;;;;;5.40;1.50;;;7.00;99.90;;;;;;5036006;28;20475;-75
2021/11/22 07:42:09;;;;;;;11.55;2.08;;;6.90;99.90;;;;;;5035673;28;20032;-76
2021/11/22 07:44:35;;;;;;;6.63;1.38;;;6.90;99.90;;;;;;5036136;28;20056;-76
2021/11/22 07:47:03;;;;;;;4.05;1.15;;;7.00;99.90;;;;;;5035451;28;20495;-76
2021/11/22 07:49:29;;;;;;;8.10;1.52;;;7.00;99.90;;;;;;5035535;28;20013;-75
2021/11/22 07:51:54;;;;;;;3.42;1.25;;;7.00;99.90;;;;;;5035437;28;20029;-73
2021/11/22 07:54:20;;;;;;;5.93;1.10;;;6.90;99.90;;;;;;5035472;28;20383;-76
2021/11/22 07:56:46;;;;;;;3.45;0.75;;;7.00;99.90;;;;;;5035961;28;20029;-77
2021/11/22 07:59:13;;;;;;;4.28;1.30;;;7.00;99.90;;;;;;5035488;28;20454;-77
2021/11/22 08:01:39;;;;;;;7.25;1.10;;;7.00;99.90;;;;;;5034902;28;20037;-74
2021/11/22 08:04:12;;;;;;;10.63;1.58;;;7.00;99.90;;;;;;5035271;28;20128;-75
2021/11/22 08:06:39;;;;;;;4.65;0.98;;;7.00;99.90;;;;;;5035816;28;20022;-77
2021/11/22 08:09:12;;;;;;;6.50;1.67;;;7.10;99.90;;;;;;5035081;28;20034;-75
2021/11/22 08:11:49;;;;;;;3.78;1.00;;;7.10;99.90;;;;;;5034678;28;20021;-76
2021/11/22 08:14:14;;;;;;;3.10;0.95;;;7.10;99.90;;;;;;5033890;28;20037;-73
2021/11/22 08:16:40;;;;;;;8.35;1.95;;;7.20;99.90;;;;;;5034648;28;20392;-75
2021/11/22 08:19:06;;;;;;;4.35;1.13;;;7.20;99.90;;;;;;5027199;28;20061;-77
2021/11/22 08:21:34;;;;;;;6.03;1.10;;;7.20;99.90;;;;;;5033178;28;20036;-78
2021/11/22 08:24:00;;;;;;;4.72;1.33;;;7.30;99.90;;;;;;5034867;28;20399;-76
2021/11/22 08:26:25;;;;;;;12.40;5.03;;;7.30;99.90;;;;;;5034195;28;20018;-76
2021/11/22 08:28:51;;;;;;;5.43;1.67;;;7.30;99.90;;;;;;5034242;28;20044;-76
2021/11/22 08:31:17;;;;;;;9.07;2.53;;;7.30;99.90;;;;;;5034043;28;20140;-78
2021/11/22 08:33:42;;;;;;;6.05;1.38;;;7.40;99.90;;;;;;5033656;28;20024;-76
2021/11/22 08:36:08;;;;;;;3.42;1.30;;;7.40;99.90;;;;;;5033463;28;20036;-77
2021/11/22 08:38:34;;;;;;;5.10;1.33;;;7.40;99.90;;;;;;5034538;28;20033;-75
2021/11/22 08:41:02;;;;;;;5.07;1.70;;;7.40;99.90;;;;;;5034797;28;20026;-76
2021/11/22 08:43:29;;;;;;;7.80;1.70;;;7.50;99.90;;;;;;5034260;28;20032;-76
2021/11/22 08:45:55;;;;;;;6.30;2.08;;;7.50;99.90;;;;;;5033918;28;20064;-75
2021/11/22 08:48:21;;;;;;;5.00;1.20;;;7.60;99.90;;;;;;5033575;28;20065;-75
2021/11/22 08:50:47;;;;;;;5.38;1.58;;;7.60;99.90;;;;;;5034586;28;20018;-75
2021/11/22 08:53:13;;;;;;;7.65;1.70;;;7.70;99.90;;;;;;5034149;28;20021;-79
2021/11/22 08:55:39;;;;;;;5.93;2.33;;;7.70;99.90;;;;;;5034302;28;20475;-79
2021/11/22 08:58:05;;;;;;;5.57;1.90;;;7.70;99.90;;;;;;5032292;28;20033;-77
2021/11/22 09:00:34;;;;;;;5.20;1.50;;;7.80;99.90;;;;;;5029533;28;20037;-78
2021/11/22 09:02:59;;;;;;;3.15;1.20;;;7.80;99.90;;;;;;5033262;28;20032;-78
2021/11/22 09:05:26;;;;;;;5.15;1.40;;;7.90;99.90;;;;;;5034347;28;20037;-77
2021/11/22 09:07:52;;;;;;;6.60;1.40;;;8.00;99.90;;;;;;5033563;28;20033;-76
2021/11/22 09:10:18;;;;;;;4.30;1.30;;;8.20;99.90;;;;;;5034150;28;20083;-74
2021/11/22 09:12:44;;;;;;;5.55;1.42;;;8.40;99.90;;;;;;5034107;28;20029;-73
2021/11/22 09:15:10;;;;;;;5.47;1.92;;;8.70;99.90;;;;;;5033537;28;20030;-73
2021/11/22 09:17:36;;;;;;;2.65;0.98;;;8.90;99.90;;;;;;5034000;28;20036;-72
2021/11/22 09:20:02;;;;;;;7.28;1.33;;;9.00;99.90;;;;;;5033499;28;20034;-72
2021/11/22 09:22:28;;;;;;;5.07;1.58;;;9.20;99.90;;;;;;5033770;28;20025;-79
2021/11/22 09:24:54;;;;;;;3.97;1.38;;;9.20;99.90;;;;;;5033475;28;20368;-75
2021/11/22 09:27:19;;;;;;;3.40;1.20;;;9.40;99.90;;;;;;5033888;28;20053;-73
2021/11/22 09:29:45;;;;;;;5.05;1.50;;;9.50;99.90;;;;;;5033215;28;20467;-73
2021/11/22 09:32:11;;;;;;;9.68;1.45;;;9.40;99.90;;;;;;5032642;28;20506;-74
2021/11/22 09:34:37;;;;;;;5.70;1.27;;;9.40;99.90;;;;;;5033582;28;20483;-77
2021/11/22 09:37:03;;;;;;;1.42;1.00;;;9.50;99.90;;;;;;5033326;28;20083;-72
2021/11/22 09:39:29;;;;;;;3.50;1.23;;;9.50;99.90;;;;;;5034085;28;20538;-75
2021/11/22 09:41:55;;;;;;;9.00;2.72;;;9.40;99.90;;;;;;5033156;28;20041;-74
2021/11/22 09:44:22;;;;;;;4.97;1.63;;;9.30;99.90;;;;;;5033461;28;20097;-72
2021/11/22 09:46:48;;;;;;;4.00;1.60;;;9.30;99.90;;;;;;5033209;28;20442;-75
2021/11/22 09:49:14;;;;;;;4.28;1.73;;;9.30;99.90;;;;;;5032982;28;20113;-74
2021/11/22 09:51:40;;;;;;;7.03;3.03;;;9.20;99.90;;;;;;5032312;28;20048;-76
2021/11/22 09:54:06;;;;;;;4.60;1.70;;;9.20;99.90;;;;;;5032538;28;20047;-77
2021/11/22 09:56:33;;;;;;;4.88;2.33;;;9.20;99.90;;;;;;5032998;28;20014;-74
2021/11/22 09:58:59;;;;;;;3.78;1.27;;;9.20;99.90;;;;;;5032515;28;20025;-74
2021/11/22 10:01:25;;;;;;;4.55;1.20;;;9.20;99.90;;;;;;5032462;28;20042;-74
2021/11/22 10:04:01;;;;;;;3.78;1.00;;;9.30;99.90;;;;;;5032634;28;20109;-74
2021/11/22 10:06:43;;;;;;;4.15;1.80;;;9.20;99.90;;;;;;5031859;28;20029;-73
2021/11/22 10:09:08;;;;;;;3.33;1.10;;;9.20;99.90;;;;;;5032206;28;20049;-74
2021/11/22 10:11:34;;;;;;;3.90;1.10;;;9.20;99.90;;;;;;5023812;28;20399;-75
2021/11/22 10:14:04;;;;;;;6.35;0.95;;;9.20;99.90;;;;;;5032968;28;20029;-71
2021/11/22 10:16:29;;;;;;;4.37;1.40;;;9.20;99.90;;;;;;5032867;28;20434;-76
2021/11/22 10:18:59;;;;;;;2.00;0.90;;;9.20;99.90;;;;;;5033100;28;20025;-76
2021/11/22 10:21:34;;;;;;;4.00;0.97;;;9.20;99.90;;;;;;5032558;28;20061;-75
2021/11/22 10:24:08;;;;;;;1.77;1.10;;;9.20;99.90;;;;;;5033322;28;20309;-74
2021/11/22 10:26:41;;;;;;;3.65;0.85;;;9.30;99.90;;;;;;5025191;28;20033;-77
2021/11/22 10:29:09;;;;;;;2.88;1.27;;;9.30;99.90;;;;;;5030255;28;20060;-73
2021/11/22 10:31:36;;;;;;;3.65;0.85;;;9.20;99.90;;;;;;5032816;28;20027;-72
2021/11/22 10:34:03;;;;;;;4.63;1.10;;;9.10;99.90;;;;;;5032441;28;20060;-73
2021/11/22 10:36:29;;;;;;;4.60;1.05;;;9.00;99.90;;;;;;5033458;28;20021;-73
2021/11/22 10:38:59;;;;;;;2.58;0.82;;;9.00;99.90;;;;;;5032895;28;20029;-73
2021/11/22 10:41:28;;;;;;;2.33;0.75;;;9.00;99.90;;;;;;5033227;28;20501;-74
2021/11/22 10:44:06;;;;;;;2.65;1.00;;;9.10;99.90;;;;;;5032768;28;20032;-72
2021/11/22 10:46:57;;;;;;;1.45;0.73;;;9.00;99.90;;;;;;5032413;28;20414;-73
2021/11/22 10:49:39;;;;;;;1.65;0.70;;;8.90;99.90;;;;;;5031711;28;20029;-73
2021/11/22 10:52:35;;;;;;;5.47;1.27;;;9.00;99.90;;;;;;5033072;28;20025;-72
2021/11/22 10:55:06;;;;;;;2.65;0.80;;;9.00;99.90;;;;;;5032597;28;20123;-72
2021/11/22 10:57:35;;;;;;;3.03;1.00;;;9.00;99.90;;;;;;5031708;28;20056;-71
2021/11/22 11:00:01;;;;;;;4.70;1.00;;;9.10;99.90;;;;;;5034214;28;20030;-71
2021/11/22 11:02:42;;;;;;;3.20;1.10;;;9.00;99.90;;;;;;5036624;28;20043;-73
2021/11/22 11:05:08;;;;;;;2.67;1.00;;;9.00;99.90;;;;;;5036825;28;20021;-70
2021/11/22 11:07:34;;;;;;;4.28;0.88;;;9.10;99.90;;;;;;5036181;28;20513;-74
2021/11/22 11:10:00;;;;;;;1.17;0.80;;;9.00;99.90;;;;;;5035483;28;20025;-73
2021/11/22 11:12:26;;;;;;;3.67;0.73;;;9.10;99.90;;;;;;5036137;28;20068;-74
2021/11/22 11:14:56;;;;;;;3.50;0.82;;;9.10;99.90;;;;;;5036066;28;20482;-74
2021/11/22 11:17:36;;;;;;;5.47;1.25;;;9.10;99.90;;;;;;5035784;28;20486;-74
2021/11/22 11:20:14;;;;;;;1.85;0.70;;;9.10;99.90;;;;;;5035940;28;20072;-75
2021/11/22 11:22:40;;;;;;;1.73;0.90;;;9.20;99.90;;;;;;5032216;28;20509;-75
2021/11/22 11:25:07;;;;;;;5.40;1.30;;;9.10;99.90;;;;;;5030114;28;20025;-72
2021/11/22 11:27:37;;;;;;;7.63;1.40;;;9.10;99.90;;;;;;5034854;28;20099;-74
2021/11/22 11:30:04;;;;;;;2.90;1.20;;;9.10;99.90;;;;;;5034736;28;20356;-75
2021/11/22 11:32:31;;;;;;;4.07;1.23;;;9.10;99.90;;;;;;5035089;28;20045;-75
2021/11/22 11:34:58;;;;;;;4.25;1.20;;;9.20;99.90;;;;;;5035984;28;20390;-77
2021/11/22 11:37:43;;;;;;;2.42;2.00;;;9.30;99.90;;;;;;5035210;28;20479;-71
2021/11/22 11:40:35;;;;;;;3.00;0.90;;;9.30;99.90;;;;;;5025316;28;20064;-70
2021/11/22 11:43:37;;;;;;;3.80;1.05;;;9.30;99.90;;;;;;5036119;28;20116;-71
2021/11/22 11:46:42;;;;;;;2.05;0.60;;;9.30;99.90;;;;;;5035906;28;20032;-72
2021/11/22 11:49:11;;;;;;;1.80;0.45;;;9.40;99.90;;;;;;5035784;28;20060;-71
2021/11/22 11:51:39;;;;;;;2.50;0.65;;;9.40;99.90;;;;;;5035488;28;20026;-73
2021/11/22 11:54:09;;;;;;;0.82;0.40;;;9.40;99.90;;;;;;5035455;28;20391;-71
2021/11/22 11:56:56;;;;;;;0.95;0.50;;;9.40;99.80;;;;;;5035433;28;20093;-70
2021/11/22 11:59:40;;;;;;;1.52;0.98;;;9.50;98.50;;;;;;5035744;28;20126;-72
2021/11/22 12:02:17;;;;;;;1.75;0.50;;;9.50;99.50;;;;;;5035894;28;20041;-70
2021/11/22 12:04:50;;;;;;;2.05;0.50;;;9.50;99.60;;;;;;5035591;28;20029;-74
2021/11/22 12:07:31;;;;;;;4.07;1.00;;;9.50;98.00;;;;;;5035444;28;20022;-73
2021/11/22 12:10:23;;;;;;;2.08;0.80;;;9.60;97.00;;;;;;5035528;28;20025;-74
2021/11/22 12:12:57;;;;;;;2.20;0.80;;;9.50;97.10;;;;;;5035441;28;20118;-71
2021/11/22 12:15:27;;;;;;;2.33;1.00;;;9.60;95.80;;;;;;5035095;28;20495;-72
2021/11/22 12:17:57;;;;;;;1.80;0.80;;;9.60;97.30;;;;;;5035025;28;20487;-69
2021/11/22 12:20:24;;;;;;;2.38;0.77;;;9.60;97.50;;;;;;5035271;28;20029;-71
2021/11/22 12:23:00;;;;;;;1.80;1.10;;;9.60;96.30;;;;;;5034965;28;20033;-70
2021/11/22 12:25:38;;;;;;;4.30;1.33;;;9.70;96.60;;;;;;5035449;28;20131;-73
2021/11/22 12:28:16;;;;;;;3.55;1.00;;;9.70;95.40;;;;;;5034978;28;20030;-74
2021/11/22 12:30:44;;;;;;;4.25;0.70;;;9.70;95.30;;;;;;5035114;28;20029;-74
2021/11/22 12:33:24;;;;;;;1.35;0.57;;;9.70;96.10;;;;;;5035041;28;20435;-73
2021/11/22 12:35:59;;;;;;;0.85;0.77;;;9.70;95.00;;;;;;5034981;28;20014;-71
2021/11/22 12:38:45;;;;;;;0.50;0.47;;;9.70;95.00;;;;;;5034644;28;20025;-73
2021/11/22 12:41:25;;;;;;;1.77;0.60;;;9.70;94.60;;;;;;5034892;28;20394;-73
2021/11/22 12:43:58;;;;;;;0.98;0.63;;;9.70;95.70;;;;;;5034759;28;20037;-71
2021/11/22 12:46:35;;;;;;;1.73;0.65;;;9.70;93.30;;;;;;5034416;28;20032;-72
2021/11/22 12:49:22;;;;;;;0.40;0.40;;;9.70;92.60;;;;;;5034478;28;20072;-73
2021/11/22 12:51:50;;;;;;;2.00;0.73;;;9.70;93.00;;;;;;5034530;28;20021;-71
2021/11/22 12:54:17;;;;;;;0.98;0.50;;;9.70;92.90;;;;;;5034319;28;20495;-71
2021/11/22 12:56:43;;;;;;;2.30;0.55;;;9.70;93.20;;;;;;5034333;28;20074;-71
2021/11/22 12:59:15;;;;;;;1.17;0.93;;;9.70;93.20;;;;;;5034190;28;20037;-73
2021/11/22 13:01:41;;;;;;;2.25;0.90;;;9.70;93.10;;;;;;5033985;28;20042;-71
2021/11/22 13:04:07;;;;;;;0.77;0.47;;;9.70;94.60;;;;;;5034166;28;20034;-72